createdAt,value
2024-02-07T00:00:53.318Z,97202.80
2024-02-07T00:03:20.293Z,97206.05
2024-02-07T00:05:49.530Z,97190.43
2024-02-07T00:08:17.052Z,97190.99
2024-02-07T00:10:46.680Z,97188.53
2024-02-07T00:13:13.715Z,97187.94
2024-02-07T00:15:40.620Z,97183.67
2024-02-07T00:18:07.712Z,97176.96
2024-02-07T00:20:34.956Z,97174.98
2024-02-07T00:23:03.006Z,97171.93
2024-02-07T01:51:11.512Z,97096.41
2024-02-07T02:49:02.380Z,97032.28
2024-02-07T02:51:30.087Z,97016.10
2024-02-07T02:53:57.527Z,97015.41
2024-02-07T02:56:24.740Z,97024.38
2024-02-07T02:58:53.613Z,97025.70
2024-02-07T03:01:20.842Z,97022.71
2024-02-07T03:03:55.828Z,97022.84
2024-02-07T03:06:46.600Z,97025.38
2024-02-07T03:09:21.296Z,97021.39
2024-02-07T03:11:50.017Z,97019.10
2024-02-07T03:14:17.929Z,97023.11
2024-02-07T03:16:47.000Z,97013.20
2024-02-07T03:19:17.696Z,97010.45
2024-02-07T03:21:45.841Z,97005.21
2024-02-07T03:24:16.530Z,97004.42
2024-02-07T03:26:46.403Z,96998.38
2024-02-07T03:29:13.649Z,96992.31
2024-02-07T03:31:42.495Z,96999.69
2024-02-07T03:34:12.787Z,96993.27
2024-02-07T03:36:40.253Z,96985.06
2024-02-07T03:51:42.734Z,96973.64
2024-02-07T03:54:35.141Z,96967.63
2024-02-07T03:57:11.408Z,96958.83
2024-02-07T03:59:42.419Z,96966.20
2024-02-07T04:03:20.505Z,96962.09
2024-02-07T04:06:19.303Z,96960.09
2024-02-07T04:08:46.703Z,96956.40
2024-02-07T04:11:19.644Z,96956.75
2024-02-07T04:13:47.839Z,96958.54
2024-02-07T04:16:29.328Z,96956.57
2024-02-07T04:19:09.745Z,96944.52
2024-02-07T04:21:50.958Z,96945.70
2024-02-07T04:24:32.532Z,96943.02
2024-02-07T04:27:15.776Z,96942.25
2024-02-07T04:29:58.542Z,96937.48
2024-02-07T04:32:39.606Z,96932.38
2024-02-07T04:35:20.613Z,96927.91
2024-02-07T04:38:01.360Z,96917.47
2024-02-07T04:40:42.146Z,96927.48
2024-02-07T04:43:21.847Z,96936.30
2024-02-07T04:46:02.733Z,96933.16
2024-02-07T04:48:44.052Z,96916.38
2024-02-07T04:52:05.997Z,96918.21
2024-02-07T04:55:27.640Z,96918.20
2024-02-07T04:58:36.927Z,96916.73
2024-02-07T05:04:54.836Z,96915.84
2024-02-07T05:08:17.954Z,96912.34
2024-02-07T05:11:58.849Z,96908.22
2024-02-07T05:15:06.613Z,96902.11
2024-02-07T05:17:55.099Z,96898.36
2024-02-07T05:20:22.050Z,96891.33
2024-02-07T05:22:51.387Z,96897.70
2024-02-07T05:25:18.279Z,96896.23
2024-02-07T05:27:45.045Z,96889.08
2024-02-07T05:30:16.087Z,96888.20
2024-02-07T05:32:43.419Z,96882.18
2024-02-07T05:35:10.365Z,96879.23
2024-02-07T05:37:39.089Z,96871.52
2024-02-07T05:40:07.133Z,96869.79
2024-02-07T05:42:33.845Z,96866.92
2024-02-07T05:45:00.877Z,96872.71
2024-02-07T05:47:27.979Z,96866.77
2024-02-07T05:49:54.783Z,96865.41
2024-02-07T05:52:24.985Z,96860.30
2024-02-07T05:54:51.953Z,96858.41
2024-02-07T05:57:18.707Z,96856.06
2024-02-07T05:59:45.445Z,96859.60
2024-02-07T06:02:13.857Z,96856.66
2024-02-07T06:04:41.634Z,96859.44
2024-02-07T06:07:09.867Z,96859.10
2024-02-07T06:09:37.782Z,96860.27
2024-02-07T06:12:05.768Z,96856.94
2024-02-07T06:14:33.579Z,96857.06
2024-02-07T06:17:00.393Z,96861.10
2024-02-07T06:19:27.366Z,96864.28
2024-02-07T06:21:54.388Z,96867.84
2024-02-07T06:24:21.205Z,96866.51
2024-02-07T06:26:47.950Z,96854.98
2024-02-07T06:29:14.746Z,96859.56
2024-02-07T06:31:41.719Z,96854.37
2024-02-07T06:34:08.739Z,96852.22
2024-02-07T06:39:16.560Z,96856.29
2024-02-07T06:41:43.321Z,96853.93
2024-02-07T06:44:10.207Z,96851.48
2024-02-07T06:46:43.988Z,96852.05
2024-02-07T06:49:11.080Z,96850.95
2024-02-07T06:51:38.088Z,96849.73
2024-02-07T06:54:05.117Z,96848.52
2024-02-07T06:56:33.021Z,96848.40
2024-02-07T06:59:01.341Z,96844.61
2024-02-07T07:01:29.478Z,96841.52
2024-02-07T07:03:58.369Z,96847.62
2024-02-07T07:06:25.466Z,96848.08
2024-02-07T07:08:52.805Z,96844.38
2024-02-07T07:11:19.771Z,96837.22
2024-02-07T07:13:46.852Z,96824.86
2024-02-07T07:16:13.986Z,96842.35
2024-02-07T07:18:41.152Z,96845.45
2024-02-07T07:21:08.156Z,96841.17
2024-02-07T07:23:35.245Z,96843.56
2024-02-07T07:26:02.418Z,96835.84
2024-02-07T07:28:29.842Z,96842.66
2024-02-07T07:30:58.959Z,96847.80
2024-02-07T07:33:25.943Z,96842.96
2024-02-07T07:35:52.853Z,96842.34
2024-02-07T07:38:19.859Z,96836.50
2024-02-07T07:40:46.643Z,96838.75
2024-02-07T07:43:13.750Z,96836.91
2024-02-07T07:45:40.828Z,96841.09
2024-02-07T07:48:08.210Z,96829.63
2024-02-07T07:50:35.072Z,96830.48
2024-02-07T07:53:01.970Z,96833.52
2024-02-07T07:55:28.885Z,96829.30
2024-02-07T07:57:56.163Z,96833.41
2024-02-07T08:00:23.497Z,96834.89
2024-02-07T08:02:50.479Z,96839.52
2024-02-07T08:05:17.653Z,96838.23
2024-02-07T08:07:45.209Z,96841.95
2024-02-07T08:10:12.503Z,96841.45
2024-02-07T08:12:40.846Z,96838.18
2024-02-07T08:15:08.738Z,96834.05
2024-02-07T08:17:35.529Z,96835.22
2024-02-07T08:20:02.925Z,96832.01
2024-02-07T08:22:30.075Z,96831.71
2024-02-07T08:24:56.866Z,96829.27
2024-02-07T08:27:23.930Z,96824.85
2024-02-07T08:29:51.235Z,96832.85
2024-02-07T08:32:18.285Z,96829.20
2024-02-07T08:34:45.747Z,96828.86
2024-02-07T08:37:13.831Z,96821.62
2024-02-07T08:39:40.820Z,96820.01
2024-02-07T08:42:07.952Z,96823.89
2024-02-07T08:44:36.095Z,96818.37
2024-02-07T08:47:04.100Z,96817.23
2024-02-07T08:49:31.298Z,96817.98
2024-02-07T08:51:58.316Z,96813.58
2024-02-07T08:54:25.313Z,96810.70
2024-02-07T08:56:52.290Z,96811.33
2024-02-07T09:02:04.147Z,96807.65
2024-02-07T09:04:31.300Z,96807.59
2024-02-07T09:06:58.383Z,96809.20
2024-02-07T09:09:25.154Z,96808.77
2024-02-07T09:11:52.243Z,96803.81
2024-02-07T09:14:20.216Z,96804.95
2024-02-07T09:16:47.159Z,96807.05
2024-02-07T09:19:15.948Z,96805.18
2024-02-07T09:21:43.117Z,96808.21
2024-02-07T09:24:10.073Z,96800.27
2024-02-07T09:26:37.379Z,96803.52
2024-02-07T09:29:04.237Z,96801.89
2024-02-07T09:31:31.189Z,96801.33
2024-02-07T09:33:58.481Z,96809.57
2024-02-07T09:36:25.729Z,96799.77
2024-02-07T09:38:52.970Z,96801.99
2024-02-07T09:41:23.136Z,96799.36
2024-02-07T09:43:52.762Z,96794.45
2024-02-07T09:46:27.532Z,96791.98
2024-02-07T09:48:56.923Z,96797.30
2024-02-07T09:51:26.342Z,96799.68
2024-02-07T09:53:53.946Z,96802.64
2024-02-07T09:56:23.019Z,96803.71
2024-02-07T09:58:50.482Z,96800.39
2024-02-07T10:01:18.565Z,96801.58
2024-02-07T10:03:49.534Z,96800.63
2024-02-07T10:06:16.810Z,96794.37
2024-02-07T10:08:50.130Z,96800.70
2024-02-07T10:11:17.561Z,96797.40
2024-02-07T10:13:44.701Z,96796.04
2024-02-07T10:16:13.359Z,96797.23
2024-02-07T10:18:40.487Z,96792.39
2024-02-07T10:21:07.499Z,96781.23
2024-02-07T10:23:34.831Z,96785.57
2024-02-07T10:26:02.252Z,96784.17
2024-02-07T10:28:31.985Z,96771.46
2024-02-07T10:31:04.328Z,96777.58
2024-02-07T10:33:42.062Z,96766.70
2024-02-07T10:36:13.806Z,96760.92
2024-02-07T10:38:41.469Z,96766.83
2024-02-07T10:41:09.228Z,96768.02
2024-02-07T10:43:42.938Z,96765.21
2024-02-07T10:46:15.963Z,96769.84
2024-02-07T10:48:44.376Z,96763.63
2024-02-07T10:51:12.607Z,96761.73
2024-02-07T10:53:40.195Z,96766.06
2024-02-07T10:56:15.575Z,96767.70
2024-02-07T10:58:44.150Z,96759.96
2024-02-07T11:01:12.107Z,96760.96
2024-02-07T11:03:39.617Z,96760.53
2024-02-07T11:06:07.798Z,96758.74
2024-02-07T11:08:35.191Z,96758.19
2024-02-07T11:11:03.701Z,96747.91
2024-02-07T11:13:32.489Z,96746.69
2024-02-07T11:16:00.650Z,96748.66
2024-02-07T11:18:28.757Z,96743.52
2024-02-07T11:20:58.136Z,96751.45
2024-02-07T11:23:33.638Z,96751.48
2024-02-07T11:26:03.132Z,96740.42
2024-02-07T11:28:30.522Z,96739.64
2024-02-07T11:31:00.428Z,96730.60
2024-02-07T11:33:27.742Z,96735.80
2024-02-07T11:35:54.826Z,96728.16
2024-02-07T11:38:21.841Z,96728.02
2024-02-07T11:40:48.982Z,96730.49
2024-02-07T11:43:25.366Z,96724.58
2024-02-07T11:46:03.079Z,96724.36
2024-02-07T11:48:30.717Z,96721.83
2024-02-07T11:51:07.475Z,96716.00
2024-02-07T11:53:40.524Z,96719.92
2024-02-07T11:56:19.258Z,96720.89
2024-02-07T11:58:47.946Z,96720.90
2024-02-07T12:01:15.777Z,96713.98
2024-02-07T12:03:42.834Z,96715.17
2024-02-07T12:06:11.245Z,96716.02
2024-02-07T12:08:42.273Z,96707.41
2024-02-07T12:11:11.245Z,96708.48
2024-02-07T12:13:39.027Z,96710.37
2024-02-07T12:16:09.459Z,96713.80
2024-02-07T12:18:37.162Z,96711.02
2024-02-07T12:21:05.681Z,96709.10
2024-02-07T12:23:34.419Z,96702.42
2024-02-07T12:26:03.633Z,96704.71
2024-02-07T12:28:30.935Z,96703.77
2024-02-07T12:31:02.219Z,96701.50
2024-02-07T12:33:29.724Z,96699.95
2024-02-07T12:35:58.604Z,96703.75
2024-02-07T12:38:25.850Z,96696.16
2024-02-07T12:40:57.133Z,96689.70
2024-02-07T12:43:28.167Z,96686.48
2024-02-07T12:46:00.791Z,96684.27
2024-02-07T12:48:28.827Z,96686.83
2024-02-07T12:50:57.344Z,96690.13
2024-02-07T12:53:24.434Z,96686.30
2024-02-07T12:55:54.218Z,96682.08
2024-02-07T12:58:21.573Z,96686.91
2024-02-07T13:00:48.740Z,96696.27
2024-02-07T13:03:16.754Z,96699.70
2024-02-07T13:05:43.762Z,96698.38
2024-02-07T13:08:13.472Z,96704.41
2024-02-07T13:10:40.892Z,96708.23
2024-02-07T13:13:07.985Z,96703.99
2024-02-07T13:15:35.160Z,96700.00
2024-02-07T13:18:04.416Z,96707.20
2024-02-07T13:20:33.671Z,96707.88
2024-02-07T13:23:00.525Z,96706.64
2024-02-07T13:25:28.317Z,96713.13
2024-02-07T13:27:55.250Z,96705.60
2024-02-07T13:30:22.005Z,96704.97
2024-02-07T13:32:48.848Z,96703.58
2024-02-07T13:35:17.037Z,96700.20
2024-02-07T13:37:44.393Z,96694.68
2024-02-07T13:40:13.310Z,96700.93
2024-02-07T13:42:40.438Z,96698.80
2024-02-07T13:45:08.026Z,96700.63
2024-02-07T13:47:35.611Z,96697.30
2024-02-07T13:50:03.068Z,96701.20
2024-02-07T13:52:30.349Z,96708.39
2024-02-07T13:54:58.129Z,96714.83
2024-02-07T13:57:25.160Z,96708.14
2024-02-07T13:59:52.167Z,96710.13
2024-02-07T14:02:19.474Z,96708.08
2024-02-07T14:04:47.251Z,96718.10
2024-02-07T14:07:14.512Z,96718.72
2024-02-07T14:09:41.974Z,96724.45
2024-02-07T14:12:09.051Z,96717.92
2024-02-07T14:14:37.183Z,96723.54
2024-02-07T14:17:04.514Z,96720.33
2024-02-07T14:19:31.753Z,96719.79
2024-02-07T14:22:00.516Z,96722.40
2024-02-07T14:24:30.401Z,96720.95
2024-02-07T14:26:57.320Z,96726.07
2024-02-07T14:29:24.507Z,96728.36
2024-02-07T14:31:53.117Z,96736.58
2024-02-07T14:34:20.591Z,96732.75
2024-02-07T14:36:47.756Z,96730.67
2024-02-07T14:39:14.874Z,96733.19
2024-02-07T14:41:41.986Z,96731.52
2024-02-07T14:44:09.246Z,96727.75
2024-02-07T14:46:36.964Z,96722.91
2024-02-07T14:49:05.829Z,96722.09
2024-02-07T14:51:33.505Z,96724.84
2024-02-07T14:54:01.128Z,96734.98
2024-02-07T14:56:28.141Z,96728.55
2024-02-07T14:58:55.203Z,96738.67
2024-02-07T15:01:23.955Z,96731.91
2024-02-07T15:03:50.923Z,96730.38
2024-02-07T15:06:18.124Z,96734.42
2024-02-07T15:08:45.393Z,96759.70
2024-02-07T15:11:12.757Z,96777.84
2024-02-07T15:13:42.710Z,96796.44
2024-02-07T15:16:15.875Z,96802.89
2024-02-07T15:18:42.995Z,96808.94
2024-02-07T15:21:09.956Z,96817.12
2024-02-07T15:23:37.080Z,96819.14
2024-02-07T15:26:04.210Z,96821.38
2024-02-07T15:28:31.241Z,96831.48
2024-02-07T15:30:58.408Z,96841.40
2024-02-07T15:33:25.481Z,96843.30
2024-02-07T15:35:52.999Z,96843.16
2024-02-07T15:38:19.973Z,96851.18
2024-02-07T15:40:47.367Z,96857.62
2024-02-07T15:43:17.298Z,96866.52
2024-02-07T15:45:46.877Z,96870.46
2024-02-07T15:48:14.258Z,96875.24
2024-02-07T15:50:41.549Z,96877.64
2024-02-07T15:53:08.690Z,96878.19
2024-02-07T15:55:39.602Z,96885.45
2024-02-07T15:58:08.635Z,96885.70
2024-02-07T16:00:35.890Z,96889.77
2024-02-07T16:03:02.752Z,96897.83
2024-02-07T16:05:29.930Z,96902.98
2024-02-07T16:07:57.176Z,96912.77
2024-02-07T16:10:24.400Z,96923.68
2024-02-07T16:12:51.378Z,96928.13
2024-02-07T16:15:18.799Z,96927.31
2024-02-07T16:17:46.421Z,96932.58
2024-02-07T16:20:13.750Z,96939.70
2024-02-07T16:22:40.895Z,96945.02
2024-02-07T16:25:08.383Z,96943.98
2024-02-07T16:27:38.324Z,96942.45
2024-02-07T16:30:09.787Z,96943.31
2024-02-07T16:32:37.363Z,96953.15
2024-02-07T16:35:06.296Z,96965.26
2024-02-07T16:37:33.241Z,96973.30
2024-02-07T16:40:00.300Z,96973.66
2024-02-07T16:42:27.262Z,96972.59
2024-02-07T16:44:54.387Z,96974.55
2024-02-07T16:47:21.213Z,96979.63
2024-02-07T16:49:49.205Z,96984.48
2024-02-07T16:52:16.801Z,96987.13
2024-02-07T16:54:43.850Z,96992.33
2024-02-07T16:57:10.580Z,96996.44
2024-02-07T16:59:37.400Z,96999.29
2024-02-07T17:02:04.345Z,96998.50
2024-02-07T17:04:31.209Z,97005.77
2024-02-07T17:06:58.251Z,97009.30
2024-02-07T17:09:25.313Z,97016.03
2024-02-07T17:11:52.382Z,97016.64
2024-02-07T17:14:19.386Z,97016.14
2024-02-07T17:16:46.176Z,97015.30
2024-02-07T17:19:13.238Z,97029.24
2024-02-07T17:21:42.668Z,97038.54
2024-02-07T17:24:09.464Z,97036.20
2024-02-07T17:26:36.258Z,97039.03
2024-02-07T17:29:03.165Z,97038.89
2024-02-07T17:31:30.142Z,97038.54
2024-02-07T17:33:57.303Z,97041.70
2024-02-07T17:36:24.213Z,97046.81
2024-02-07T17:38:50.954Z,97052.30
2024-02-07T17:41:17.783Z,97054.35
2024-02-07T17:43:44.666Z,97056.50
2024-02-07T17:46:11.406Z,97055.90
2024-02-07T17:48:38.897Z,97056.98
2024-02-07T17:51:06.376Z,97060.88
2024-02-07T17:53:33.210Z,97048.31
2024-02-07T17:56:00.012Z,97046.23
2024-02-07T17:58:26.916Z,97054.45
2024-02-07T18:00:53.795Z,97065.50
2024-02-07T18:03:20.591Z,97065.73
2024-02-07T18:05:47.578Z,97066.61
2024-02-07T18:08:14.794Z,97071.44
2024-02-07T18:10:42.064Z,97074.33
2024-02-07T18:13:09.000Z,97078.31
2024-02-07T18:15:38.329Z,97085.33
2024-02-07T18:18:06.392Z,97093.88
2024-02-07T18:20:33.815Z,97094.93
2024-02-07T18:23:01.256Z,97094.30
2024-02-07T18:25:28.114Z,97092.61
2024-02-07T18:27:55.345Z,97088.04
2024-02-07T18:30:22.105Z,97088.42
2024-02-07T18:32:49.523Z,97088.45
2024-02-07T18:35:23.451Z,97081.64
2024-02-07T18:37:50.673Z,97085.27
2024-02-07T18:40:17.750Z,97087.39
2024-02-07T18:42:44.970Z,97091.17
2024-02-07T18:45:12.687Z,97082.22
2024-02-07T18:47:39.666Z,97084.23
2024-02-07T18:50:07.726Z,97084.56
2024-02-07T18:52:39.488Z,97087.53
2024-02-07T18:55:07.953Z,97090.01
2024-02-07T18:57:39.588Z,97093.73
2024-02-07T19:00:08.471Z,97091.32
2024-02-07T19:02:35.302Z,97089.13
2024-02-07T19:05:02.317Z,97090.31
2024-02-07T19:07:29.684Z,97101.67
2024-02-07T19:09:56.887Z,97099.86
2024-02-07T19:12:23.752Z,97104.73
2024-02-07T19:14:50.614Z,97108.35
2024-02-07T19:17:17.409Z,97105.22
2024-02-07T19:19:44.298Z,97101.66
2024-02-07T19:22:11.177Z,97099.15
2024-02-07T19:24:38.430Z,97102.86
2024-02-07T19:27:06.243Z,97106.59
2024-02-07T19:29:39.077Z,97112.39
2024-02-07T19:32:06.256Z,97113.38
2024-02-07T19:34:33.775Z,97113.65
2024-02-07T19:37:01.182Z,97118.05
2024-02-07T19:39:27.944Z,97110.86
2024-02-07T19:41:55.486Z,97110.72
2024-02-07T19:44:22.318Z,97106.43
2024-02-07T19:46:49.452Z,97106.79
2024-02-07T19:49:16.786Z,97117.19
2024-02-07T19:51:43.744Z,97119.99
2024-02-07T19:54:10.540Z,97130.73
2024-02-07T19:56:37.825Z,97127.75
2024-02-07T19:59:04.733Z,97123.80
2024-02-07T20:01:31.747Z,97118.11
2024-02-07T20:03:58.960Z,97119.19
2024-02-07T20:06:26.125Z,97121.91
2024-02-07T20:08:53.239Z,97128.83
2024-02-07T20:11:20.501Z,97128.38
2024-02-07T20:13:49.031Z,97126.61
2024-02-07T20:16:16.035Z,97132.00
2024-02-07T20:18:42.942Z,97129.84
2024-02-07T20:21:10.504Z,97128.86
2024-02-07T20:23:37.580Z,97126.39
2024-02-07T20:26:06.662Z,97128.50
2024-02-07T20:28:37.494Z,97124.88
2024-02-07T20:31:04.752Z,97120.62
2024-02-07T20:33:31.776Z,97130.83
2024-02-07T20:35:58.637Z,97135.52
2024-02-07T20:38:25.568Z,97139.77
2024-02-07T20:40:52.664Z,97147.26
2024-02-07T20:43:19.720Z,97145.67
2024-02-07T20:45:46.508Z,97146.08
2024-02-07T20:48:13.772Z,97137.60
2024-02-07T20:50:40.872Z,97129.30
2024-02-07T20:53:11.377Z,97126.52
2024-02-07T20:55:38.394Z,97124.34
2024-02-07T20:58:05.278Z,97133.16
2024-02-07T21:00:33.596Z,97131.81
2024-02-07T21:03:04.036Z,97136.30
2024-02-07T21:05:31.022Z,97139.70
2024-02-07T21:07:58.718Z,97142.91
2024-02-07T21:10:25.970Z,97148.33
2024-02-07T21:12:52.787Z,97147.17
2024-02-07T21:15:19.669Z,97142.48
2024-02-07T21:17:47.015Z,97144.73
2024-02-07T21:20:16.625Z,97148.77
2024-02-07T21:22:43.624Z,97153.70
2024-02-07T21:25:10.533Z,97157.10
2024-02-07T21:27:38.617Z,97159.91
2024-02-07T21:30:06.158Z,97167.52
2024-02-07T21:32:33.085Z,97164.72
2024-02-07T21:35:00.194Z,97166.11
2024-02-07T21:37:27.277Z,97170.48
2024-02-07T21:39:54.336Z,97168.91
2024-02-07T21:42:21.222Z,97170.60
2024-02-07T21:44:48.529Z,97172.48
2024-02-07T21:47:16.063Z,97171.66
2024-02-07T21:49:42.953Z,97178.77
2024-02-07T21:52:09.764Z,97177.91
2024-02-07T21:54:36.613Z,97179.76
2024-02-07T21:57:03.914Z,97179.69
2024-02-07T21:59:30.965Z,97179.84
2024-02-07T22:01:57.786Z,97178.99
2024-02-07T22:04:26.848Z,97179.87
2024-02-07T22:06:53.912Z,97178.45
2024-02-07T22:09:20.959Z,97182.72
2024-02-07T22:11:48.042Z,97183.16
2024-02-07T22:14:14.894Z,97182.23
2024-02-07T22:16:42.048Z,97185.66
2024-02-07T22:19:09.014Z,97187.47
2024-02-07T22:21:36.082Z,97188.92
2024-02-07T22:24:03.089Z,97189.94
2024-02-07T22:26:29.992Z,97190.54
2024-02-07T22:28:56.884Z,97195.94
2024-02-07T22:31:24.345Z,97196.17
2024-02-07T22:33:52.258Z,97202.43
2024-02-07T22:36:20.655Z,97201.11
2024-02-07T22:38:47.880Z,97203.44
2024-02-07T22:41:14.824Z,97203.23
2024-02-07T22:43:41.857Z,97208.61
2024-02-07T22:46:11.917Z,97207.02
2024-02-07T22:48:39.426Z,97209.15
2024-02-07T22:51:06.419Z,97210.06
2024-02-07T22:53:33.929Z,97216.70
2024-02-07T22:56:01.245Z,97213.58
2024-02-07T22:58:29.017Z,97217.47
2024-02-07T23:00:57.634Z,97219.68
2024-02-07T23:03:25.221Z,97227.19
2024-02-07T23:05:52.635Z,97227.73
2024-02-07T23:08:19.656Z,97220.84
2024-02-07T23:10:46.972Z,97222.39
2024-02-07T23:13:13.804Z,97221.05
2024-02-07T23:15:40.765Z,97223.16
2024-02-07T23:18:08.796Z,97218.06
2024-02-07T23:20:35.669Z,97214.54
2024-02-07T23:23:03.055Z,97214.65
2024-02-07T23:25:29.973Z,97214.65
2024-02-07T23:27:56.958Z,97217.34
2024-02-07T23:30:23.772Z,97215.59
2024-02-07T23:32:50.594Z,97216.17
2024-02-07T23:35:17.558Z,97216.77
2024-02-07T23:37:44.434Z,97216.45
2024-02-07T23:40:11.858Z,97216.43
2024-02-07T23:42:38.707Z,97222.73
2024-02-07T23:45:05.921Z,97223.59
2024-02-07T23:47:34.358Z,97226.70
2024-02-07T23:50:01.436Z,97230.67
2024-02-07T23:52:28.294Z,97232.12
2024-02-07T23:54:55.061Z,97229.86
2024-02-07T23:57:21.880Z,97231.24
2024-02-07T23:59:48.680Z,97232.21
